Terminal Aerodrome Forecast
Issued by NWS

Home | Current Version | Previous Version | Text Only | Print | Product List | Glossary On
Versions: 1 2 3 4 5 6 7 8 9 10 11 12 13 14 15 16 17 18 19 20 21 22 23 24 25 26 27 28 29
000
FTUS41 KBUF 222300
TAFIAG
TAF
KIAG 222321Z 2300/2324 36005KT P6SM BKN035
     FM230500 36006KT P6SM SCT025
     FM231500 33010KT P6SM SCT040
     FM232200 31006KT P6SM SKC=

USA.gov is the U.S. government's official web portal to all federal, state and local government web resources and services.